Time,TemperatureF,DewpointF,PressureIn,WindDirection,WindDirectionDegrees,WindSpeedMPH,WindSpeedGustMPH,Humidity,HourlyPrecipIn,Conditions,Clouds,dailyrainin,SoftwareType,DateUTC
2013-05-14 00:02:00,47.0,40.0,30.13,West,281,0.0,0.0,76,0.00,,,0.00,,2013-05-14 04:02:00,
2013-05-14 00:13:00,47.0,40.0,30.13,West,281,0.0,0.0,76,0.00,,,0.00,,2013-05-14 04:13:00,
2013-05-14 00:23:00,47.0,40.0,30.13,West,281,0.0,0.0,76,0.00,,,0.00,,2013-05-14 04:23:00,
2013-05-14 00:32:00,47.0,40.0,30.13,West,281,0.0,0.0,76,0.00,,,0.00,,2013-05-14 04:32:00,
2013-05-14 00:43:00,47.0,40.0,30.13,West,281,0.0,0.0,76,0.00,,,0.00,,2013-05-14 04:43:00,
2013-05-14 00:52:00,46.0,40.0,30.12,West,281,0.0,0.0,80,0.00,,,0.00,,2013-05-14 04:52:00,
2013-05-14 01:02:00,47.0,42.0,30.11,West,280,0.0,0.0,84,0.00,,,0.00,,2013-05-14 05:02:00,
2013-05-14 01:12:00,47.0,42.0,30.11,West,280,0.0,0.0,84,0.00,,,0.00,,2013-05-14 05:12:00,
2013-05-14 01:22:00,47.0,43.0,30.12,West,281,0.0,0.0,85,0.00,,,0.00,,2013-05-14 05:22:00,
2013-05-14 01:32:00,48.0,43.0,30.12,West,280,0.0,0.0,83,0.00,,,0.00,,2013-05-14 05:32:00,
2013-05-14 01:42:00,48.0,43.0,30.12,West,280,0.0,0.0,83,0.00,,,0.00,,2013-05-14 05:42:00,
2013-05-14 01:52:00,48.0,43.0,30.12,West,281,0.0,0.0,82,0.00,,,0.00,,2013-05-14 05:52:00,
2013-05-14 02:01:00,48.0,43.0,30.11,West,281,0.0,0.0,82,0.00,,,0.00,,2013-05-14 06:01:00,
2013-05-14 02:12:00,48.0,43.0,30.11,West,281,0.0,0.0,82,0.00,,,0.00,,2013-05-14 06:12:00,
2013-05-14 02:22:00,48.0,43.0,30.11,West,281,0.0,0.0,82,0.00,,,0.00,,2013-05-14 06:22:00,
2013-05-14 02:32:00,47.0,41.0,30.11,West,281,0.0,0.0,81,0.00,,,0.00,,2013-05-14 06:32:00,
2013-05-14 02:42:00,47.0,41.0,30.11,West,281,0.0,0.0,81,0.00,,,0.00,,2013-05-14 06:42:00,
2013-05-14 02:51:00,47.0,42.0,30.10,West,281,0.0,0.0,82,0.00,,,0.00,,2013-05-14 06:51:00,
2013-05-14 03:02:00,47.0,42.0,30.10,West,281,0.0,0.0,84,0.00,,,0.00,,2013-05-14 07:02:00,
2013-05-14 03:11:00,47.0,42.0,30.10,West,281,0.0,0.0,84,0.00,,,0.00,,2013-05-14 07:11:00,
2013-05-14 03:21:00,46.0,41.0,30.09,West,280,0.0,0.0,84,0.00,,,0.00,,2013-05-14 07:21:00,
2013-05-14 03:32:00,46.0,41.0,30.09,West,281,0.0,0.0,84,0.00,,,0.00,,2013-05-14 07:32:00,
2013-05-14 03:42:00,46.0,41.0,30.09,West,281,0.0,0.0,84,0.00,,,0.00,,2013-05-14 07:42:00,
2013-05-14 03:52:00,46.0,41.0,30.09,West,281,0.0,0.0,84,0.00,,,0.00,,2013-05-14 07:52:00,
2013-05-14 04:02:00,46.0,42.0,30.09,West,281,0.0,0.0,87,0.00,,,0.00,,2013-05-14 08:02:00,
2013-05-14 04:11:00,46.0,42.0,30.09,West,281,0.0,0.0,87,0.00,,,0.00,,2013-05-14 08:11:00,
2013-05-14 04:21:00,45.0,41.0,30.09,West,281,0.0,0.0,86,0.00,,,0.00,,2013-05-14 08:21:00,
2013-05-14 04:31:00,45.0,41.0,30.08,West,281,0.0,0.0,87,0.00,,,0.00,,2013-05-14 08:31:00,
2013-05-14 04:42:00,45.0,41.0,30.07,West,281,0.0,0.0,87,0.00,,,0.00,,2013-05-14 08:42:00,
2013-05-14 04:52:00,45.0,41.0,30.07,West,281,0.0,0.0,87,0.00,,,0.00,,2013-05-14 08:52:00,
2013-05-14 05:02:00,45.0,42.0,30.07,West,281,0.0,0.0,88,0.00,,,0.00,,2013-05-14 09:02:00,
2013-05-14 05:11:00,45.0,42.0,30.07,West,281,0.0,0.0,88,0.00,,,0.00,,2013-05-14 09:11:00,
2013-05-14 05:22:00,44.0,41.0,30.06,West,281,0.0,0.0,88,0.00,,,0.00,,2013-05-14 09:22:00,
2013-05-14 05:32:00,44.0,41.0,30.06,West,280,0.0,0.0,88,0.00,,,0.00,,2013-05-14 09:32:00,
2013-05-14 05:44:00,44.0,41.0,30.06,West,280,0.0,0.0,88,0.00,,,0.00,,2013-05-14 09:44:00,
2013-05-14 05:54:00,44.0,41.0,30.06,West,280,0.0,0.0,88,0.00,,,0.00,,2013-05-14 09:54:00,
2013-05-14 06:04:00,44.0,41.0,30.06,West,280,0.0,0.0,88,0.00,,,0.00,,2013-05-14 10:04:00,
2013-05-14 06:14:00,44.0,41.0,30.06,West,280,0.0,0.0,88,0.00,,,0.00,,2013-05-14 10:14:00,
2013-05-14 06:33:00,44.0,41.0,30.05,West,281,0.0,0.0,88,0.00,,,0.00,,2013-05-14 10:33:00,
2013-05-14 06:42:00,44.0,41.0,30.05,West,281,0.0,0.0,88,0.00,,,0.00,,2013-05-14 10:42:00,
2013-05-14 06:52:00,44.0,40.0,30.05,West,281,0.0,0.0,87,0.00,,,0.00,,2013-05-14 10:52:00,
2013-05-14 07:02:00,45.0,41.0,30.05,SW,226,0.0,0.0,85,0.00,,,0.00,,2013-05-14 11:02:00,
2013-05-14 07:11:00,45.0,41.0,30.05,SW,226,0.0,0.0,85,0.00,,,0.00,,2013-05-14 11:11:00,
2013-05-14 07:21:00,45.0,40.0,30.05,SW,226,0.0,0.0,84,0.00,,,0.00,,2013-05-14 11:21:00,
2013-05-14 07:32:00,47.0,40.0,30.05,SSE,154,0.0,0.0,77,0.00,,,0.00,,2013-05-14 11:32:00,
2013-05-14 07:43:00,47.0,40.0,30.05,SSE,154,0.0,0.0,77,0.00,,,0.00,,2013-05-14 11:43:00,
2013-05-14 07:52:00,47.0,41.0,30.05,South,174,0.0,0.0,78,0.00,,,0.00,,2013-05-14 11:52:00,
2013-05-14 08:02:00,49.0,41.0,30.04,SSE,151,0.0,0.0,74,0.00,,,0.00,,2013-05-14 12:02:00,
2013-05-14 08:12:00,49.0,41.0,30.04,SSE,151,0.0,0.0,74,0.00,,,0.00,,2013-05-14 12:12:00,
2013-05-14 08:21:00,49.0,41.0,30.04,SSE,151,0.0,0.0,74,0.00,,,0.00,,2013-05-14 12:21:00,
2013-05-14 08:32:00,49.0,41.0,30.04,SSE,151,0.0,0.0,74,0.00,,,0.00,,2013-05-14 12:32:00,
2013-05-14 09:22:00,57.0,43.0,30.03,South,170,0.0,0.0,59,0.00,,,0.00,,2013-05-14 13:22:00,
2013-05-14 09:32:00,59.0,43.0,30.01,SSW,195,0.0,0.0,56,0.00,,,0.00,,2013-05-14 13:32:00,
2013-05-14 09:41:00,59.0,43.0,30.01,SSW,195,0.0,0.0,56,0.00,,,0.00,,2013-05-14 13:41:00,
2013-05-14 09:52:00,59.0,43.0,30.01,SSW,195,0.0,0.0,56,0.00,,,0.00,,2013-05-14 13:52:00,
2013-05-14 10:01:00,60.0,44.0,30.01,SSW,200,0.0,0.0,55,0.00,,,0.00,,2013-05-14 14:01:00,
2013-05-14 10:11:00,62.0,47.0,30.00,ESE,106,0.0,0.0,57,0.00,,,0.00,,2013-05-14 14:11:00,
2013-05-14 10:22:00,62.0,47.0,30.00,ESE,106,0.0,0.0,57,0.00,,,0.00,,2013-05-14 14:22:00,
2013-05-14 10:31:00,62.0,46.0,29.99,SSE,163,0.0,0.0,56,0.00,,,0.00,,2013-05-14 14:31:00,
2013-05-14 10:41:00,62.0,46.0,29.99,SSE,163,0.0,0.0,56,0.00,,,0.00,,2013-05-14 14:41:00,
2013-05-14 10:52:00,62.0,46.0,29.99,SSE,163,0.0,0.0,56,0.00,,,0.00,,2013-05-14 14:52:00,
2013-05-14 11:01:00,62.0,46.0,29.99,SSE,163,0.0,0.0,56,0.00,,,0.00,,2013-05-14 15:01:00,
2013-05-14 11:22:00,66.0,50.0,29.97,SW,215,0.0,0.0,57,0.00,,,0.00,,2013-05-14 15:22:00,
2013-05-14 11:33:00,66.0,50.0,29.97,SW,215,0.0,0.0,57,0.00,,,0.00,,2013-05-14 15:33:00,
2013-05-14 11:43:00,69.0,52.0,29.96,South,189,0.0,0.0,55,0.00,,,0.00,,2013-05-14 15:43:00,
2013-05-14 11:53:00,69.0,52.0,29.96,South,189,0.0,0.0,55,0.00,,,0.00,,2013-05-14 15:53:00,
2013-05-14 12:02:00,72.0,54.0,29.95,WNW,299,0.0,0.0,54,0.00,,,0.00,,2013-05-14 16:02:00,
2013-05-14 12:12:00,72.0,54.0,29.95,WNW,299,0.0,0.0,54,0.00,,,0.00,,2013-05-14 16:12:00,
2013-05-14 12:23:00,74.0,56.0,29.95,SSW,203,0.0,0.0,53,0.00,,,0.00,,2013-05-14 16:23:00,
2013-05-14 12:33:00,76.0,55.0,29.93,SW,219,0.0,0.0,49,0.00,,,0.00,,2013-05-14 16:33:00,
2013-05-14 12:43:00,76.0,55.0,29.93,SW,219,0.0,0.0,49,0.00,,,0.00,,2013-05-14 16:43:00,
2013-05-14 12:54:00,76.0,55.0,29.93,SW,219,0.0,0.0,49,0.00,,,0.00,,2013-05-14 16:54:00,
2013-05-14 13:03:00,76.0,55.0,29.93,SW,219,0.0,0.0,49,0.00,,,0.00,,2013-05-14 17:03:00,
2013-05-14 13:13:00,76.0,55.0,29.93,SW,219,0.0,0.0,49,0.00,,,0.00,,2013-05-14 17:13:00,
2013-05-14 13:33:00,80.0,59.0,29.91,SW,236,0.0,0.0,48,0.00,,,0.00,,2013-05-14 17:33:00,
2013-05-14 13:43:00,80.0,59.0,29.91,SW,236,0.0,0.0,48,0.00,,,0.00,,2013-05-14 17:43:00,
2013-05-14 13:52:00,81.0,59.0,29.91,West,270,0.0,0.0,48,0.00,,,0.00,,2013-05-14 17:52:00,
2013-05-14 14:02:00,82.0,61.0,29.90,SE,144,0.0,0.0,49,0.00,,,0.00,,2013-05-14 18:02:00,
2013-05-14 14:12:00,82.0,61.0,29.90,SE,144,0.0,0.0,49,0.00,,,0.00,,2013-05-14 18:12:00,
2013-05-14 14:22:00,82.0,60.0,29.88,SSW,208,0.0,0.0,47,0.00,,,0.00,,2013-05-14 18:22:00,
2013-05-14 14:32:00,83.0,62.0,29.88,WSW,244,0.0,0.0,50,0.00,,,0.00,,2013-05-14 18:32:00,
2013-05-14 14:42:00,83.0,62.0,29.88,WSW,244,0.0,0.0,50,0.00,,,0.00,,2013-05-14 18:42:00,
2013-05-14 14:52:00,83.0,61.0,29.87,SW,236,0.0,0.0,47,0.00,,,0.00,,2013-05-14 18:52:00,
2013-05-14 15:01:00,83.0,60.0,29.86,SSW,201,0.0,0.0,46,0.00,,,0.00,,2013-05-14 19:01:00,
2013-05-14 15:12:00,83.0,60.0,29.86,SSW,201,0.0,0.0,46,0.00,,,0.00,,2013-05-14 19:12:00,
2013-05-14 15:22:00,83.0,61.0,29.85,West,265,0.0,0.0,48,0.00,,,0.00,,2013-05-14 19:22:00,
2013-05-14 15:32:00,84.0,61.0,29.84,SW,226,0.0,0.0,46,0.00,,,0.00,,2013-05-14 19:32:00,
2013-05-14 15:42:00,84.0,61.0,29.84,SW,226,0.0,0.0,46,0.00,,,0.00,,2013-05-14 19:42:00,
2013-05-14 15:52:00,84.0,62.0,29.84,WSW,253,0.0,0.0,47,0.00,,,0.00,,2013-05-14 19:52:00,
2013-05-14 16:02:00,85.0,62.0,29.83,SSW,206,0.0,0.0,47,0.00,,,0.00,,2013-05-14 20:02:00,
2013-05-14 16:11:00,85.0,62.0,29.83,SSW,206,0.0,0.0,47,0.00,,,0.00,,2013-05-14 20:11:00,
2013-05-14 16:23:00,85.0,62.0,29.83,SSW,206,0.0,0.0,47,0.00,,,0.00,,2013-05-14 20:23:00,
2013-05-14 16:32:00,85.0,62.0,29.83,SSW,207,0.0,0.0,47,0.00,,,0.00,,2013-05-14 20:32:00,
2013-05-14 16:44:00,85.0,62.0,29.83,SSW,207,0.0,0.0,47,0.00,,,0.00,,2013-05-14 20:44:00,
2013-05-14 16:52:00,85.0,62.0,29.83,WSW,257,0.0,0.0,47,0.00,,,0.00,,2013-05-14 20:52:00,
2013-05-14 17:03:00,85.0,63.0,29.83,SW,214,0.0,0.0,48,0.00,,,0.00,,2013-05-14 21:03:00,
2013-05-14 17:12:00,85.0,63.0,29.83,SW,214,0.0,0.0,48,0.00,,,0.00,,2013-05-14 21:12:00,
2013-05-14 17:23:00,85.0,63.0,29.83,SW,214,0.0,0.0,48,0.00,,,0.00,,2013-05-14 21:23:00,
2013-05-14 17:33:00,85.0,63.0,29.82,SSW,212,0.0,0.0,48,0.00,,,0.00,,2013-05-14 21:33:00,
2013-05-14 17:43:00,85.0,63.0,29.82,SSW,212,0.0,0.0,48,0.00,,,0.00,,2013-05-14 21:43:00,
2013-05-14 17:53:00,85.0,64.0,29.82,West,259,0.0,0.0,49,0.00,,,0.00,,2013-05-14 21:53:00,
2013-05-14 18:03:00,85.0,64.0,29.82,West,259,0.0,0.0,49,0.00,,,0.00,,2013-05-14 22:03:00,
2013-05-14 18:13:00,85.0,64.0,29.82,West,259,0.0,0.0,49,0.00,,,0.00,,2013-05-14 22:13:00,
2013-05-14 18:24:00,85.0,62.0,29.83,SSW,204,0.0,0.0,47,0.00,,,0.00,,2013-05-14 22:24:00,
2013-05-14 18:34:00,85.0,62.0,29.83,West,260,0.0,0.0,47,0.00,,,0.00,,2013-05-14 22:34:00,
2013-05-14 18:45:00,85.0,62.0,29.83,West,260,0.0,0.0,47,0.00,,,0.00,,2013-05-14 22:45:00,
2013-05-14 18:54:00,85.0,63.0,29.82,WSW,246,0.0,0.0,48,0.00,,,0.00,,2013-05-14 22:54:00,
2013-05-14 19:03:00,85.0,63.0,29.82,WSW,246,0.0,0.0,48,0.00,,,0.00,,2013-05-14 23:03:00,
2013-05-14 19:12:00,85.0,63.0,29.82,WSW,246,0.0,0.0,48,0.00,,,0.00,,2013-05-14 23:12:00,
2013-05-14 19:21:00,84.0,62.0,29.82,WSW,243,0.0,0.0,48,0.00,,,0.00,,2013-05-14 23:21:00,
2013-05-14 19:32:00,84.0,62.0,29.82,WSW,243,0.0,0.0,48,0.00,,,0.00,,2013-05-14 23:32:00,
2013-05-14 19:44:00,84.0,62.0,29.82,WSW,243,0.0,0.0,48,0.00,,,0.00,,2013-05-14 23:44:00,
2013-05-14 19:52:00,83.0,62.0,29.82,WNW,285,0.0,0.0,50,0.00,,,0.00,,2013-05-14 23:52:00,
2013-05-14 20:02:00,82.0,62.0,29.82,SW,235,0.0,0.0,51,0.00,,,0.00,,2013-05-15 00:02:00,
2013-05-14 20:11:00,82.0,62.0,29.82,SW,235,0.0,0.0,51,0.00,,,0.00,,2013-05-15 00:11:00,
2013-05-14 20:21:00,82.0,63.0,29.81,WSW,258,0.0,0.0,52,0.00,,,0.00,,2013-05-15 00:21:00,
2013-05-14 20:32:00,80.0,61.0,29.81,SW,236,0.0,0.0,53,0.00,,,0.00,,2013-05-15 00:32:00,
2013-05-14 20:42:00,80.0,61.0,29.81,SW,236,0.0,0.0,53,0.00,,,0.00,,2013-05-15 00:42:00,
2013-05-14 20:51:00,80.0,62.0,29.82,West,276,0.0,0.0,54,0.00,,,0.00,,2013-05-15 00:51:00,
2013-05-14 21:01:00,78.0,61.0,29.82,SSW,205,0.0,0.0,56,0.00,,,0.00,,2013-05-15 01:01:00,
2013-05-14 21:11:00,78.0,61.0,29.82,SSW,205,0.0,0.0,56,0.00,,,0.00,,2013-05-15 01:11:00,
2013-05-14 21:21:00,78.0,62.0,29.82,SW,214,0.0,0.0,57,0.00,,,0.00,,2013-05-15 01:21:00,
2013-05-14 21:32:00,77.0,61.0,29.82,SSW,212,0.0,0.0,57,0.00,,,0.00,,2013-05-15 01:32:00,
2013-05-14 21:42:00,77.0,61.0,29.82,SSW,212,0.0,0.0,57,0.00,,,0.00,,2013-05-15 01:42:00,
2013-05-14 21:52:00,77.0,61.0,29.82,SSW,212,0.0,0.0,57,0.00,,,0.00,,2013-05-15 01:52:00,
2013-05-14 22:02:00,75.0,61.0,29.82,South,174,0.0,0.0,61,0.00,,,0.00,,2013-05-15 02:02:00,
2013-05-14 22:11:00,75.0,61.0,29.82,South,174,0.0,0.0,61,0.00,,,0.00,,2013-05-15 02:11:00,
2013-05-14 22:21:00,75.0,61.0,29.83,SW,217,0.0,0.0,62,0.00,,,0.00,,2013-05-15 02:21:00,
2013-05-14 22:32:00,74.0,60.0,29.83,West,270,0.0,0.0,62,0.00,,,0.00,,2013-05-15 02:32:00,
2013-05-14 22:42:00,74.0,60.0,29.83,West,270,0.0,0.0,62,0.00,,,0.00,,2013-05-15 02:42:00,
2013-05-14 22:52:00,74.0,61.0,29.84,SW,226,0.0,0.0,63,0.00,,,0.00,,2013-05-15 02:52:00,
2013-05-14 23:01:00,74.0,61.0,29.84,SSW,193,0.0,0.0,63,0.00,,,0.00,,2013-05-15 03:01:00,
2013-05-14 23:12:00,74.0,61.0,29.84,SSW,193,0.0,0.0,63,0.00,,,0.00,,2013-05-15 03:12:00,
2013-05-14 23:22:00,74.0,61.0,29.84,SSW,193,0.0,0.0,63,0.00,,,0.00,,2013-05-15 03:22:00,
2013-05-14 23:33:00,74.0,61.0,29.84,SSW,193,0.0,0.0,63,0.00,,,0.00,,2013-05-15 03:33:00,
2013-05-14 23:44:00,74.0,61.0,29.84,SSW,193,0.0,0.0,63,0.00,,,0.00,,2013-05-15 03:44:00,